createdAt,value
2018-07-12T00:00:56.976Z,1010.60
2018-07-12T00:01:56.995Z,1010.62
2018-07-12T00:02:56.942Z,1010.65
2018-07-12T00:03:56.981Z,1010.60
2018-07-12T00:04:56.989Z,1010.63
2018-07-12T00:05:56.919Z,1010.67
2018-07-12T00:06:56.901Z,1010.69
2018-07-12T00:07:56.918Z,1010.70
2018-07-12T00:08:56.897Z,1010.68
2018-07-12T00:09:56.892Z,1010.69
2018-07-12T00:10:56.907Z,1010.66
2018-07-12T00:11:56.875Z,1010.68
2018-07-12T00:12:56.988Z,1010.66
2018-07-12T00:13:56.852Z,1010.72
2018-07-12T00:14:56.820Z,1010.72
2018-07-12T00:15:56.802Z,1010.74
2018-07-12T00:16:56.827Z,1010.76
2018-07-12T00:17:56.857Z,1010.72
2018-07-12T00:18:56.768Z,1010.71
2018-07-12T00:19:56.881Z,1010.75
2018-07-12T00:20:56.758Z,1010.71
2018-07-12T00:21:56.737Z,1010.67
2018-07-12T00:22:56.760Z,1010.73
2018-07-12T00:23:56.724Z,1010.74
2018-07-12T00:24:56.727Z,1010.69
2018-07-12T00:25:56.692Z,1010.76
2018-07-12T00:26:56.753Z,1010.72
2018-07-12T00:27:56.660Z,1010.80
2018-07-12T00:28:56.709Z,1010.75
2018-07-12T00:29:56.653Z,1010.70
2018-07-12T00:30:56.626Z,1010.72
2018-07-12T00:31:56.645Z,1010.72
2018-07-12T00:32:56.640Z,1010.72
2018-07-12T00:33:56.629Z,1010.69
2018-07-12T00:34:56.644Z,1010.75
2018-07-12T00:35:56.585Z,1010.70
2018-07-12T00:36:56.592Z,1010.71
2018-07-12T00:37:56.586Z,1010.71
2018-07-12T00:38:56.597Z,1010.71
2018-07-12T00:39:56.529Z,1010.71
2018-07-12T00:40:56.568Z,1010.71
2018-07-12T00:41:56.520Z,1010.73
2018-07-12T00:42:56.552Z,1010.70
2018-07-12T00:43:56.502Z,1010.72
2018-07-12T00:44:56.481Z,1010.72
2018-07-12T00:45:56.540Z,1010.69
2018-07-12T00:46:56.572Z,1010.68
2018-07-12T00:47:56.755Z,1010.66
2018-07-12T00:48:56.442Z,1010.71
2018-07-12T00:49:56.494Z,1010.74
2018-07-12T00:50:56.418Z,1010.71
2018-07-12T00:51:56.495Z,1010.69
2018-07-12T00:52:56.442Z,1010.72
2018-07-12T00:53:56.403Z,1010.71
2018-07-12T00:54:56.374Z,1010.74
2018-07-12T00:55:56.547Z,1010.75
2018-07-12T00:56:56.383Z,1010.73
2018-07-12T00:57:56.386Z,1010.76
2018-07-12T00:58:56.315Z,1010.73
2018-07-12T01:00:01.133Z,1010.72
2018-07-12T01:00:56.325Z,1010.76
2018-07-12T01:01:56.318Z,1010.73
2018-07-12T01:02:56.307Z,1010.72
2018-07-12T01:03:56.309Z,1010.72
2018-07-12T01:04:56.261Z,1010.65
2018-07-12T01:05:56.274Z,1010.69
2018-07-12T01:07:38.594Z,1010.73
2018-07-12T01:07:57.227Z,1010.72
2018-07-12T01:08:56.220Z,1010.73
2018-07-12T01:09:56.272Z,1010.70
2018-07-12T01:10:56.194Z,1010.75
2018-07-12T01:11:56.190Z,1010.76
2018-07-12T01:12:56.233Z,1010.72
2018-07-12T01:13:56.186Z,1010.73
2018-07-12T01:14:56.173Z,1010.73
2018-07-12T01:15:56.202Z,1010.76
2018-07-12T01:16:56.127Z,1010.71
2018-07-12T01:17:56.120Z,1010.71
2018-07-12T01:18:56.120Z,1010.71
2018-07-12T01:19:56.115Z,1010.72
2018-07-12T01:20:56.127Z,1010.68
2018-07-12T01:21:56.134Z,1010.65
2018-07-12T01:22:56.160Z,1010.66
2018-07-12T01:23:56.053Z,1010.67
2018-07-12T01:24:56.070Z,1010.66
2018-07-12T01:25:56.032Z,1010.65
2018-07-12T01:26:56.029Z,1010.64
2018-07-12T01:27:56.088Z,1010.67
2018-07-12T01:28:56.012Z,1010.64
2018-07-12T01:29:56.033Z,1010.64
2018-07-12T01:30:56.007Z,1010.59
2018-07-12T01:31:55.973Z,1010.61
2018-07-12T01:32:55.948Z,1010.58
2018-07-12T01:33:56.025Z,1010.59
2018-07-12T01:34:55.995Z,1010.59
2018-07-12T01:35:55.989Z,1010.59
2018-07-12T01:36:55.907Z,1010.57
2018-07-12T01:37:55.924Z,1010.61
2018-07-12T01:38:55.889Z,1010.60
2018-07-12T01:39:55.931Z,1010.58
2018-07-12T01:40:55.852Z,1010.65
2018-07-12T01:41:55.953Z,1010.59
2018-07-12T01:42:55.858Z,1010.64
2018-07-12T01:43:55.815Z,1010.60
2018-07-12T01:44:55.842Z,1010.62
2018-07-12T01:45:55.838Z,1010.64
2018-07-12T01:46:55.819Z,1010.63
2018-07-12T01:47:55.804Z,1010.65
2018-07-12T01:48:55.824Z,1010.69
2018-07-12T01:49:55.780Z,1010.66
2018-07-12T01:50:55.955Z,1010.67
2018-07-12T01:51:55.770Z,1010.66
2018-07-12T01:52:55.740Z,1010.68
2018-07-12T01:53:55.747Z,1010.68
2018-07-12T01:54:55.705Z,1010.67
2018-07-12T01:55:55.751Z,1010.71
2018-07-12T01:56:55.722Z,1010.64
2018-07-12T01:57:55.694Z,1010.71
2018-07-12T01:58:55.683Z,1010.69
2018-07-12T01:59:55.693Z,1010.65
2018-07-12T02:00:55.641Z,1010.63
2018-07-12T02:01:55.654Z,1010.62
2018-07-12T02:02:55.710Z,1010.64
2018-07-12T02:03:55.610Z,1010.66
2018-07-12T02:04:55.652Z,1010.62
2018-07-12T02:05:55.635Z,1010.59
2018-07-12T02:06:55.611Z,1010.64
2018-07-12T02:07:55.566Z,1010.63
2018-07-12T02:09:00.670Z,1010.60
2018-07-12T02:09:57.537Z,1010.59
2018-07-12T02:10:55.523Z,1010.59
2018-07-12T02:11:55.526Z,1010.59
2018-07-12T02:12:55.506Z,1010.59
2018-07-12T02:13:55.530Z,1010.60
2018-07-12T02:14:55.518Z,1010.61
2018-07-12T02:15:55.506Z,1010.60
2018-07-12T02:16:55.498Z,1010.60
2018-07-12T02:17:55.441Z,1010.62
2018-07-12T02:18:55.461Z,1010.67
2018-07-12T02:19:55.448Z,1010.67
2018-07-12T02:20:55.581Z,1010.73
2018-07-12T02:21:55.408Z,1010.70
2018-07-12T02:22:55.385Z,1010.73
2018-07-12T02:23:55.442Z,1010.70
2018-07-12T02:24:55.380Z,1010.72
2018-07-12T02:25:55.354Z,1010.67
2018-07-12T02:26:55.413Z,1010.64
2018-07-12T02:27:55.365Z,1010.63
2018-07-12T02:28:55.334Z,1010.58
2018-07-12T02:29:55.327Z,1010.63
2018-07-12T02:30:55.329Z,1010.65
2018-07-12T02:31:55.373Z,1010.62
2018-07-12T02:32:55.351Z,1010.62
2018-07-12T02:33:55.317Z,1010.65
2018-07-12T02:34:55.263Z,1010.61
2018-07-12T02:35:55.258Z,1010.70
2018-07-12T02:36:55.249Z,1010.63
2018-07-12T02:37:55.264Z,1010.67
2018-07-12T02:38:55.265Z,1010.63
2018-07-12T02:39:55.225Z,1010.67
2018-07-12T02:40:55.245Z,1010.61
2018-07-12T02:41:55.188Z,1010.63
2018-07-12T02:42:55.208Z,1010.62
2018-07-12T02:43:55.171Z,1010.63
2018-07-12T02:44:55.218Z,1010.63
2018-07-12T02:45:55.161Z,1010.61
2018-07-12T02:46:55.133Z,1010.63
2018-07-12T02:47:55.138Z,1010.63
2018-07-12T02:48:55.129Z,1010.68
2018-07-12T02:49:55.123Z,1010.65
2018-07-12T02:50:55.115Z,1010.70
2018-07-12T02:51:55.114Z,1010.66
2018-07-12T02:52:55.087Z,1010.69
2018-07-12T02:53:55.096Z,1010.69
2018-07-12T02:54:55.043Z,1010.69
2018-07-12T02:55:55.031Z,1010.66
2018-07-12T02:56:55.101Z,1010.70
2018-07-12T02:57:55.031Z,1010.69
2018-07-12T02:58:55.081Z,1010.74
2018-07-12T02:59:54.994Z,1010.74
2018-07-12T03:00:55.028Z,1010.71
2018-07-12T03:01:54.958Z,1010.70
2018-07-12T03:02:55.025Z,1010.70
2018-07-12T03:03:54.958Z,1010.71
2018-07-12T03:04:54.939Z,1010.68
2018-07-12T03:05:54.944Z,1010.71
2018-07-12T03:06:54.907Z,1010.68
2018-07-12T03:07:54.889Z,1010.65
2018-07-12T03:08:54.940Z,1010.70
2018-07-12T03:09:54.878Z,1010.72
2018-07-12T03:11:00.026Z,1010.70
2018-07-12T03:13:04.607Z,1010.65
2018-07-12T03:14:04.388Z,1010.68
2018-07-12T03:15:04.389Z,1010.67
2018-07-12T03:16:04.361Z,1010.66
2018-07-12T03:17:04.224Z,1010.71
2018-07-12T03:18:04.259Z,1010.69
2018-07-12T03:19:04.238Z,1010.71
2018-07-12T03:20:04.243Z,1010.75
2018-07-12T03:21:04.168Z,1010.76
2018-07-12T03:22:04.257Z,1010.74
2018-07-12T03:23:04.202Z,1010.79
2018-07-12T03:24:04.163Z,1010.80
2018-07-12T03:25:04.162Z,1010.78
2018-07-12T03:26:04.176Z,1010.80
2018-07-12T03:27:04.158Z,1010.76
2018-07-12T03:28:04.119Z,1010.78
2018-07-12T03:29:04.078Z,1010.79
2018-07-12T03:30:04.118Z,1010.77
2018-07-12T03:31:04.089Z,1010.76
2018-07-12T03:32:04.121Z,1010.78
2018-07-12T03:33:04.060Z,1010.73
2018-07-12T03:34:04.037Z,1010.76
2018-07-12T03:35:04.128Z,1010.79
2018-07-12T03:36:03.999Z,1010.79
2018-07-12T03:37:04.025Z,1010.80
2018-07-12T03:38:04.026Z,1010.83
2018-07-12T03:39:04.019Z,1010.84
2018-07-12T03:40:03.982Z,1010.81
2018-07-12T03:41:03.983Z,1010.80
2018-07-12T03:42:04.004Z,1010.79
2018-07-12T03:43:03.984Z,1010.84
2018-07-12T03:44:03.998Z,1010.83
2018-07-12T03:45:04.250Z,1010.86
2018-07-12T03:46:03.906Z,1010.85
2018-07-12T03:47:03.927Z,1010.84
2018-07-12T03:48:03.890Z,1010.87
2018-07-12T03:49:03.864Z,1010.88
2018-07-12T03:50:03.891Z,1010.90
2018-07-12T03:51:03.913Z,1010.88
2018-07-12T03:52:03.820Z,1010.92
2018-07-12T03:53:03.861Z,1010.91
2018-07-12T03:54:03.789Z,1010.92
2018-07-12T03:55:03.814Z,1010.94
2018-07-12T03:56:03.818Z,1010.98
2018-07-12T03:57:03.772Z,1010.96
2018-07-12T03:58:03.810Z,1010.94
2018-07-12T03:59:03.771Z,1010.94
2018-07-12T04:00:03.784Z,1010.91
2018-07-12T04:01:03.753Z,1010.91
2018-07-12T04:02:03.756Z,1010.94
2018-07-12T04:03:03.747Z,1010.92
2018-07-12T04:04:03.707Z,1010.93
2018-07-12T04:05:03.672Z,1010.98
2018-07-12T04:06:03.662Z,1010.93
2018-07-12T04:07:03.708Z,1010.95
2018-07-12T04:08:03.755Z,1010.93
2018-07-12T04:09:03.678Z,1010.94
2018-07-12T04:10:03.656Z,1010.95
2018-07-12T04:11:03.619Z,1010.95
2018-07-12T04:12:08.779Z,1010.92
2018-07-12T04:14:13.217Z,1010.93
2018-07-12T04:15:13.296Z,1010.95
2018-07-12T04:16:13.023Z,1010.95
2018-07-12T04:17:13.017Z,1010.95
2018-07-12T04:18:12.970Z,1010.93
2018-07-12T04:19:12.961Z,1010.90
2018-07-12T04:20:12.962Z,1010.98
2018-07-12T04:21:12.927Z,1010.90
2018-07-12T04:22:12.893Z,1010.95
2018-07-12T04:23:12.890Z,1010.94
2018-07-12T04:24:12.926Z,1010.89
2018-07-12T04:25:12.902Z,1010.94
2018-07-12T04:26:12.897Z,1010.95
2018-07-12T04:27:12.916Z,1010.91
2018-07-12T04:28:12.827Z,1010.93
2018-07-12T04:29:12.824Z,1010.92
2018-07-12T04:30:12.842Z,1010.97
2018-07-12T04:31:12.835Z,1010.92
2018-07-12T04:32:12.822Z,1010.94
2018-07-12T04:33:12.857Z,1010.96
2018-07-12T04:34:12.766Z,1010.97
2018-07-12T04:35:12.743Z,1010.92
2018-07-12T04:36:12.791Z,1010.95
2018-07-12T04:37:12.736Z,1010.96
2018-07-12T04:38:12.738Z,1010.93
2018-07-12T04:39:12.705Z,1011.03
2018-07-12T04:40:12.724Z,1010.95
2018-07-12T04:41:12.849Z,1010.97
2018-07-12T04:42:12.740Z,1010.95
2018-07-12T04:43:12.680Z,1010.97
2018-07-12T04:44:12.676Z,1010.98
2018-07-12T04:45:12.659Z,1010.98
2018-07-12T04:46:12.632Z,1011.01
2018-07-12T04:47:12.658Z,1011.05
2018-07-12T04:48:12.662Z,1011.04
2018-07-12T04:49:12.582Z,1011.04
2018-07-12T04:50:12.653Z,1010.99
2018-07-12T04:51:12.592Z,1010.97
2018-07-12T04:52:12.667Z,1011.00
2018-07-12T04:53:12.554Z,1010.99
2018-07-12T04:54:12.584Z,1010.97
2018-07-12T04:55:12.540Z,1011.00
2018-07-12T04:56:12.541Z,1011.03
2018-07-12T04:57:12.516Z,1011.01
2018-07-12T04:58:12.940Z,1011.01
2018-07-12T04:59:12.540Z,1011.02
2018-07-12T05:00:12.462Z,1011.00
2018-07-12T05:01:12.477Z,1011.00
2018-07-12T05:02:12.463Z,1010.98
2018-07-12T05:03:12.462Z,1011.01
2018-07-12T05:04:12.519Z,1011.01
2018-07-12T05:05:12.460Z,1011.02
2018-07-12T05:06:12.404Z,1010.96
2018-07-12T05:07:12.381Z,1010.96
2018-07-12T05:08:12.471Z,1010.96
2018-07-12T05:09:12.418Z,1010.97
2018-07-12T05:10:12.384Z,1010.96
2018-07-12T05:11:12.587Z,1010.99
2018-07-12T05:12:12.344Z,1010.99
2018-07-12T05:13:17.389Z,1011.01
2018-07-12T05:14:13.462Z,1011.00
2018-07-12T05:15:12.288Z,1011.01
2018-07-12T05:16:12.324Z,1011.02
2018-07-12T05:17:12.339Z,1010.95
2018-07-12T05:18:12.264Z,1011.01
2018-07-12T05:19:12.315Z,1010.98
2018-07-12T05:20:12.282Z,1011.04
2018-07-12T05:21:12.287Z,1011.05
2018-07-12T05:22:12.297Z,1011.04
2018-07-12T05:23:12.235Z,1011.08
2018-07-12T05:24:12.191Z,1011.06
2018-07-12T05:25:12.196Z,1011.04
2018-07-12T05:26:12.196Z,1011.06
2018-07-12T05:27:12.168Z,1011.08
2018-07-12T05:28:12.251Z,1011.08
2018-07-12T05:29:12.144Z,1011.08
2018-07-12T05:30:12.128Z,1011.10
2018-07-12T05:31:12.118Z,1011.07
2018-07-12T05:32:12.122Z,1011.13
2018-07-12T05:33:12.136Z,1011.09
2018-07-12T05:34:12.113Z,1011.12
2018-07-12T05:35:12.118Z,1011.15
2018-07-12T05:36:12.055Z,1011.14
2018-07-12T05:37:12.057Z,1011.11
2018-07-12T05:38:12.053Z,1011.08
2018-07-12T05:39:12.125Z,1011.06
2018-07-12T05:40:12.055Z,1011.09
2018-07-12T05:41:12.380Z,1011.09
2018-07-12T05:42:12.025Z,1011.09
2018-07-12T05:43:12.055Z,1011.09
2018-07-12T05:44:11.988Z,1011.09
2018-07-12T05:45:11.953Z,1011.12
2018-07-12T05:46:11.992Z,1011.12
2018-07-12T05:47:11.926Z,1011.14
2018-07-12T05:50:28.811Z,1011.17
2018-07-12T05:51:28.804Z,1011.19
2018-07-12T05:52:28.711Z,1011.18
2018-07-12T05:53:29.382Z,1011.23
2018-07-12T05:54:28.666Z,1011.22
2018-07-12T05:55:28.731Z,1011.22
2018-07-12T05:56:28.621Z,1011.20
2018-07-12T05:57:28.724Z,1011.22
2018-07-12T05:58:28.606Z,1011.21
2018-07-12T05:59:28.611Z,1011.27
2018-07-12T06:00:28.616Z,1011.27
2018-07-12T06:01:28.601Z,1011.31
2018-07-12T06:02:28.662Z,1011.29
2018-07-12T06:03:28.572Z,1011.33
2018-07-12T06:04:28.541Z,1011.31
2018-07-12T06:05:28.542Z,1011.30
2018-07-12T06:06:28.534Z,1011.36
2018-07-12T06:07:28.509Z,1011.33
2018-07-12T06:08:28.613Z,1011.36
2018-07-12T06:09:28.505Z,1011.33
2018-07-12T06:10:28.498Z,1011.34
2018-07-12T06:11:28.470Z,1011.37
2018-07-12T06:12:28.445Z,1011.37
2018-07-12T06:13:33.596Z,1011.41
2018-07-12T06:14:29.528Z,1011.38
2018-07-12T06:15:28.469Z,1011.42
2018-07-12T06:16:28.426Z,1011.40
2018-07-12T06:17:28.410Z,1011.45
2018-07-12T06:18:28.383Z,1011.44
2018-07-12T06:19:28.388Z,1011.42
2018-07-12T06:20:28.396Z,1011.39
2018-07-12T06:21:28.388Z,1011.45
2018-07-12T06:22:28.348Z,1011.44
2018-07-12T06:23:28.353Z,1011.47
2018-07-12T06:24:28.319Z,1011.48
2018-07-12T06:25:28.314Z,1011.48
2018-07-12T06:26:28.310Z,1011.50
2018-07-12T06:27:28.347Z,1011.51
2018-07-12T06:28:28.322Z,1011.52
2018-07-12T06:29:28.420Z,1011.53
2018-07-12T06:30:28.257Z,1011.58
2018-07-12T06:31:28.261Z,1011.55
2018-07-12T06:32:28.276Z,1011.58
2018-07-12T06:33:28.276Z,1011.58
2018-07-12T06:34:28.259Z,1011.60
2018-07-12T06:35:28.228Z,1011.60
2018-07-12T06:36:28.196Z,1011.63
2018-07-12T06:37:28.203Z,1011.67
2018-07-12T06:38:28.194Z,1011.66
2018-07-12T06:39:28.185Z,1011.67
2018-07-12T06:40:28.143Z,1011.69
2018-07-12T06:41:28.152Z,1011.64
2018-07-12T06:42:28.162Z,1011.70
2018-07-12T06:43:28.140Z,1011.70
2018-07-12T06:44:28.130Z,1011.71
2018-07-12T06:45:28.096Z,1011.73
2018-07-12T06:46:28.100Z,1011.72
2018-07-12T06:47:28.077Z,1011.72
2018-07-12T06:48:28.074Z,1011.73
2018-07-12T06:49:28.119Z,1011.75
2018-07-12T06:50:28.073Z,1011.81
2018-07-12T06:51:28.034Z,1011.75
2018-07-12T06:52:28.041Z,1011.73
2018-07-12T06:53:28.011Z,1011.75
2018-07-12T06:54:27.999Z,1011.77
2018-07-12T06:55:28.014Z,1011.71
2018-07-12T06:56:28.033Z,1011.75
2018-07-12T06:57:27.968Z,1011.76
2018-07-12T06:58:27.958Z,1011.74
2018-07-12T06:59:27.953Z,1011.76
2018-07-12T07:00:27.936Z,1011.74
2018-07-12T07:01:27.937Z,1011.77
2018-07-12T07:02:27.965Z,1011.74
2018-07-12T07:03:27.937Z,1011.78
2018-07-12T07:04:27.900Z,1011.75
2018-07-12T07:05:27.884Z,1011.75
2018-07-12T07:06:27.867Z,1011.76
2018-07-12T07:07:27.852Z,1011.77
2018-07-12T07:08:27.887Z,1011.76
2018-07-12T07:09:27.854Z,1011.77
2018-07-12T07:10:27.846Z,1011.82
2018-07-12T07:11:27.817Z,1011.82
2018-07-12T07:12:27.801Z,1011.83
2018-07-12T07:13:27.793Z,1011.85
2018-07-12T07:14:32.940Z,1011.83
2018-07-12T07:15:28.847Z,1011.85
2018-07-12T07:16:27.767Z,1011.83
2018-07-12T07:17:27.776Z,1011.89
2018-07-12T07:18:27.733Z,1011.87
2018-07-12T07:19:27.724Z,1011.85
2018-07-12T07:20:27.773Z,1011.89
2018-07-12T07:21:27.718Z,1011.91
2018-07-12T07:22:27.710Z,1011.93
2018-07-12T07:23:27.692Z,1011.87
2018-07-12T07:24:27.695Z,1011.84
2018-07-12T07:25:27.693Z,1011.90
2018-07-12T07:26:27.666Z,1011.88
2018-07-12T07:27:27.645Z,1011.95
2018-07-12T07:28:27.632Z,1011.93
2018-07-12T07:29:27.633Z,1011.91
2018-07-12T07:30:27.618Z,1011.91
2018-07-12T07:31:27.673Z,1011.91
2018-07-12T07:32:27.602Z,1011.96
2018-07-12T07:33:27.592Z,1011.99
2018-07-12T07:34:27.591Z,1012.01
2018-07-12T07:35:27.562Z,1012.03
2018-07-12T07:36:27.573Z,1012.02
2018-07-12T07:37:27.556Z,1012.02
2018-07-12T07:38:27.549Z,1012.05
2018-07-12T07:39:27.515Z,1012.05
2018-07-12T07:40:27.522Z,1012.03
2018-07-12T07:41:27.491Z,1012.11
2018-07-12T07:42:27.487Z,1012.11
2018-07-12T07:43:27.521Z,1012.12
2018-07-12T07:44:27.463Z,1012.08
2018-07-12T07:45:27.479Z,1012.13
2018-07-12T07:46:27.433Z,1012.13
2018-07-12T07:47:27.462Z,1012.12
2018-07-12T07:48:27.449Z,1012.11
2018-07-12T07:49:27.411Z,1012.14
2018-07-12T07:50:27.406Z,1012.15
2018-07-12T07:51:27.377Z,1012.14
2018-07-12T07:52:27.400Z,1012.12
2018-07-12T07:53:27.390Z,1012.14
2018-07-12T07:54:27.368Z,1012.15
2018-07-12T07:55:27.340Z,1012.14
2018-07-12T07:56:27.333Z,1012.13
2018-07-12T07:57:27.332Z,1012.17
2018-07-12T07:58:27.313Z,1012.15
2018-07-12T07:59:27.412Z,1012.20
2018-07-12T08:00:27.297Z,1012.16
2018-07-12T08:01:27.303Z,1012.18
2018-07-12T08:02:27.278Z,1012.17
2018-07-12T08:03:27.355Z,1012.10
2018-07-12T08:04:27.256Z,1012.17
2018-07-12T08:05:27.259Z,1012.12
2018-07-12T08:06:27.252Z,1012.13
2018-07-12T08:07:27.283Z,1012.17
2018-07-12T08:08:27.200Z,1012.15
2018-07-12T08:09:27.209Z,1012.20
2018-07-12T08:10:27.211Z,1012.17
2018-07-12T08:11:27.198Z,1012.20
2018-07-12T08:12:27.166Z,1012.19
2018-07-12T08:13:27.192Z,1012.19
2018-07-12T08:14:27.137Z,1012.18
2018-07-12T08:15:32.032Z,1012.16
2018-07-12T08:16:27.114Z,1012.17
2018-07-12T08:17:27.260Z,1012.16
2018-07-12T08:18:27.134Z,1012.20
2018-07-12T08:19:27.078Z,1012.20
2018-07-12T08:20:35.875Z,1012.21
2018-07-12T08:21:31.327Z,1012.20
2018-07-12T08:22:28.207Z,1012.18
2018-07-12T08:23:27.227Z,1012.19
2018-07-12T08:24:27.980Z,1012.18
2018-07-12T08:25:27.048Z,1012.19
2018-07-12T08:26:27.004Z,1012.19
2018-07-12T08:27:27.110Z,1012.18
2018-07-12T08:28:26.997Z,1012.18
2018-07-12T08:29:27.078Z,1012.18
2018-07-12T08:30:26.983Z,1012.16
2018-07-12T08:31:26.957Z,1012.21
2018-07-12T08:32:26.945Z,1012.24
2018-07-12T08:33:27.030Z,1012.18
2018-07-12T08:34:26.959Z,1012.21
2018-07-12T08:35:26.981Z,1012.23
2018-07-12T08:36:26.892Z,1012.22
2018-07-12T08:37:26.889Z,1012.21
2018-07-12T08:38:26.924Z,1012.26
2018-07-12T08:39:26.876Z,1012.25
2018-07-12T08:40:26.899Z,1012.22
2018-07-12T08:41:27.057Z,1012.27
2018-07-12T08:42:26.949Z,1012.29
2018-07-12T08:43:26.836Z,1012.24
2018-07-12T08:44:26.823Z,1012.24
2018-07-12T08:45:26.791Z,1012.23
2018-07-12T08:46:26.819Z,1012.23
2018-07-12T08:47:26.805Z,1012.21
2018-07-12T08:48:26.792Z,1012.27
2018-07-12T08:49:26.759Z,1012.22
2018-07-12T08:50:26.744Z,1012.22
2018-07-12T08:51:26.755Z,1012.29
2018-07-12T08:52:26.741Z,1012.23
2018-07-12T08:53:26.742Z,1012.27
2018-07-12T08:54:26.696Z,1012.26
2018-07-12T08:55:26.706Z,1012.23
2018-07-12T08:56:26.723Z,1012.22
2018-07-12T08:57:26.838Z,1012.22
2018-07-12T08:59:59.052Z,1012.23
2018-07-12T09:00:47.333Z,1012.26
2018-07-12T09:01:47.312Z,1012.24
2018-07-12T09:02:47.329Z,1012.21
2018-07-12T09:03:47.309Z,1012.22
2018-07-12T09:04:47.257Z,1012.22
2018-07-12T09:05:47.255Z,1012.23
2018-07-12T09:06:47.239Z,1012.23
2018-07-12T09:07:47.235Z,1012.25
2018-07-12T09:08:47.277Z,1012.22
2018-07-12T09:09:47.215Z,1012.24
2018-07-12T09:10:47.195Z,1012.28
2018-07-12T09:11:47.182Z,1012.23
2018-07-12T09:12:47.193Z,1012.26
2018-07-12T09:13:47.168Z,1012.25
2018-07-12T09:14:47.194Z,1012.26
2018-07-12T09:15:52.175Z,1012.26
2018-07-12T09:16:48.185Z,1012.27
2018-07-12T09:17:47.117Z,1012.27
2018-07-12T09:18:47.113Z,1012.25
2018-07-12T09:19:47.103Z,1012.33
2018-07-12T09:20:47.146Z,1012.26
2018-07-12T09:21:47.094Z,1012.29
2018-07-12T09:22:47.097Z,1012.32
2018-07-12T09:23:47.076Z,1012.32
2018-07-12T09:24:47.095Z,1012.30
2018-07-12T09:25:47.114Z,1012.32
2018-07-12T09:26:47.103Z,1012.33
2018-07-12T09:27:47.024Z,1012.37
2018-07-12T09:28:47.030Z,1012.38
2018-07-12T09:29:47.047Z,1012.37
2018-07-12T09:30:47.025Z,1012.42
2018-07-12T09:31:48.808Z,1012.41
2018-07-12T09:32:46.986Z,1012.43
2018-07-12T09:33:46.943Z,1012.40
2018-07-12T09:34:46.952Z,1012.41
2018-07-12T09:35:46.923Z,1012.41
2018-07-12T09:36:46.935Z,1012.36
2018-07-12T09:37:46.954Z,1012.36
2018-07-12T09:38:46.931Z,1012.34
2018-07-12T09:39:46.937Z,1012.36
2018-07-12T09:40:46.863Z,1012.36
2018-07-12T09:41:46.874Z,1012.37
2018-07-12T09:42:46.861Z,1012.39
2018-07-12T09:43:46.867Z,1012.41
2018-07-12T09:44:46.888Z,1012.38
2018-07-12T09:45:46.823Z,1012.40
2018-07-12T09:46:46.820Z,1012.39
2018-07-12T09:47:46.795Z,1012.41
2018-07-12T09:48:46.794Z,1012.38
2018-07-12T09:49:46.808Z,1012.40
2018-07-12T09:50:46.799Z,1012.42
2018-07-12T09:51:46.744Z,1012.41
2018-07-12T09:52:46.740Z,1012.41
2018-07-12T09:53:46.782Z,1012.46
2018-07-12T09:54:46.716Z,1012.48
2018-07-12T09:55:46.735Z,1012.48
2018-07-12T09:56:46.793Z,1012.51
2018-07-12T09:57:46.865Z,1012.53
2018-07-12T09:58:46.668Z,1012.49
2018-07-12T09:59:46.691Z,1012.53
2018-07-12T10:00:46.650Z,1012.56
2018-07-12T10:01:46.649Z,1012.45
2018-07-12T10:02:46.683Z,1012.45
2018-07-12T10:03:46.620Z,1012.47
2018-07-12T10:04:46.674Z,1012.47
2018-07-12T10:05:46.704Z,1012.40
2018-07-12T10:06:46.592Z,1012.44
2018-07-12T10:07:46.592Z,1012.41
2018-07-12T10:08:46.610Z,1012.42
2018-07-12T10:09:46.579Z,1012.45
2018-07-12T10:10:46.544Z,1012.40
2018-07-12T10:11:47.546Z,1012.41
2018-07-12T10:12:46.536Z,1012.37
2018-07-12T10:13:46.582Z,1012.40
2018-07-12T10:15:11.542Z,1012.43
2018-07-12T10:15:46.593Z,1012.38
2018-07-12T10:16:46.508Z,1012.38
2018-07-12T10:17:51.362Z,1012.36
2018-07-12T10:18:46.482Z,1012.32
2018-07-12T10:19:46.447Z,1012.38
2018-07-12T10:20:47.275Z,1012.35
2018-07-12T10:21:46.423Z,1012.39
2018-07-12T10:22:47.049Z,1012.44
2018-07-12T10:23:46.437Z,1012.36
2018-07-12T10:24:46.453Z,1012.42
2018-07-12T10:25:46.501Z,1012.35
2018-07-12T10:26:46.495Z,1012.36
2018-07-12T10:27:46.362Z,1012.39
2018-07-12T10:28:46.399Z,1012.38
2018-07-12T10:29:46.416Z,1012.45
2018-07-12T10:30:46.331Z,1012.43
2018-07-12T10:31:46.331Z,1012.37
2018-07-12T10:32:46.422Z,1012.34
2018-07-12T10:33:46.353Z,1012.43
2018-07-12T10:34:46.615Z,1012.42
2018-07-12T10:35:46.275Z,1012.51
2018-07-12T10:36:46.354Z,1012.33
2018-07-12T10:37:46.382Z,1012.30
2018-07-12T10:38:46.267Z,1012.25
2018-07-12T10:39:46.260Z,1012.38
2018-07-12T10:40:46.215Z,1012.40
2018-07-12T10:41:46.234Z,1012.39
2018-07-12T10:42:46.203Z,1012.38
2018-07-12T10:43:46.226Z,1012.37
2018-07-12T10:44:46.222Z,1012.36
2018-07-12T10:45:46.182Z,1012.35
2018-07-12T10:46:46.217Z,1012.38
2018-07-12T10:47:46.159Z,1012.39
2018-07-12T10:48:46.128Z,1012.40
2018-07-12T10:49:46.118Z,1012.41
2018-07-12T10:50:46.217Z,1012.39
2018-07-12T10:51:46.116Z,1012.34
2018-07-12T10:52:46.093Z,1012.39
2018-07-12T10:53:46.114Z,1012.39
2018-07-12T10:54:46.089Z,1012.39
2018-07-12T10:55:46.055Z,1012.38
2018-07-12T10:56:46.088Z,1012.37
2018-07-12T10:57:46.048Z,1012.38
2018-07-12T10:58:46.052Z,1012.35
2018-07-12T10:59:46.019Z,1012.34
2018-07-12T11:00:46.032Z,1012.29
2018-07-12T11:01:45.992Z,1012.29
2018-07-12T11:02:46.013Z,1012.31
2018-07-12T11:03:46.020Z,1012.35
2018-07-12T11:04:45.986Z,1012.28
2018-07-12T11:05:45.967Z,1012.33
2018-07-12T11:06:45.953Z,1012.35
2018-07-12T11:07:45.951Z,1012.38
2018-07-12T11:08:45.979Z,1012.40
2018-07-12T11:09:45.936Z,1012.41
2018-07-12T11:10:45.897Z,1012.44
2018-07-12T11:11:45.912Z,1012.31
2018-07-12T11:12:45.887Z,1012.30
2018-07-12T11:13:46.196Z,1012.29
2018-07-12T11:14:46.185Z,1012.23
2018-07-12T11:15:45.909Z,1012.26
2018-07-12T11:16:45.839Z,1012.28
2018-07-12T11:17:45.818Z,1012.34
2018-07-12T11:18:50.706Z,1012.34
2018-07-12T11:19:45.807Z,1012.39
2018-07-12T11:20:45.828Z,1012.40
2018-07-12T11:21:45.809Z,1012.38
2018-07-12T11:22:45.786Z,1012.37
2018-07-12T11:23:45.765Z,1012.35
2018-07-12T11:24:45.741Z,1012.35
2018-07-12T11:25:45.769Z,1012.41
2018-07-12T11:26:45.749Z,1012.38
2018-07-12T11:27:45.724Z,1012.42
2018-07-12T11:28:45.717Z,1012.41
2018-07-12T11:29:45.703Z,1012.40
2018-07-12T11:30:45.687Z,1012.44
2018-07-12T11:31:45.773Z,1012.41
2018-07-12T11:32:45.674Z,1012.42
2018-07-12T11:33:45.647Z,1012.42
2018-07-12T11:34:45.661Z,1012.39
2018-07-12T11:35:45.665Z,1012.40
2018-07-12T11:36:45.644Z,1012.39
2018-07-12T11:37:45.652Z,1012.37
2018-07-12T11:38:45.637Z,1012.37
2018-07-12T11:39:45.606Z,1012.37
2018-07-12T11:40:45.584Z,1012.37
2018-07-12T11:41:45.571Z,1012.38
2018-07-12T11:42:45.592Z,1012.39
2018-07-12T11:43:45.601Z,1012.43
2018-07-12T11:44:45.556Z,1012.39
2018-07-12T11:45:45.546Z,1012.37
2018-07-12T11:46:45.538Z,1012.36
2018-07-12T11:47:45.502Z,1012.36
2018-07-12T11:48:45.481Z,1012.33
2018-07-12T11:49:45.546Z,1012.41
2018-07-12T11:50:45.512Z,1012.35
2018-07-12T11:51:45.465Z,1012.32
2018-07-12T11:52:45.585Z,1012.37
2018-07-12T11:53:45.450Z,1012.34
2018-07-12T11:54:45.425Z,1012.34
2018-07-12T11:55:45.440Z,1012.30
2018-07-12T11:56:45.419Z,1012.30
2018-07-12T11:57:45.399Z,1012.34
2018-07-12T11:58:45.410Z,1012.28
2018-07-12T11:59:45.371Z,1012.33
2018-07-12T12:00:45.374Z,1012.29
2018-07-12T12:01:45.457Z,1012.30
2018-07-12T12:02:45.364Z,1012.32
2018-07-12T12:03:45.351Z,1012.28
2018-07-12T12:04:45.337Z,1012.29
2018-07-12T12:05:45.300Z,1012.23
2018-07-12T12:06:45.297Z,1012.26
2018-07-12T12:07:45.359Z,1012.22
2018-07-12T12:08:45.284Z,1012.25
2018-07-12T12:09:45.257Z,1012.25
2018-07-12T12:10:45.286Z,1012.28
2018-07-12T12:11:45.249Z,1012.28